sensor_id;sensor_type;location;lat;lon;timestamp;pressure;altitude;pressure_sealevel;temperature;humidity
59829;BME280;45708;51.848;107.620;2024-01-15T00:03:31;95233.97;;;-25.92;72.31
59829;BME280;45708;51.848;107.620;2024-01-15T00:08:31;95244.75;;;-25.93;72.18
59829;BME280;45708;51.848;107.620;2024-01-15T00:13:32;95238.13;;;-25.97;72.15
59829;BME280;45708;51.848;107.620;2024-01-15T00:18:36;95202.50;;;-26.34;72.43
59829;BME280;45708;51.848;107.620;2024-01-15T00:23:42;95238.13;;;-26.18;72.21
59829;BME280;45708;51.848;107.620;2024-01-15T00:28:43;95233.16;;;-26.58;71.96
59829;BME280;45708;51.848;107.620;2024-01-15T00:33:44;95244.63;;;-27.08;71.75
59829;BME280;45708;51.848;107.620;2024-01-15T00:38:45;95250.34;;;-27.28;72.05
59829;BME280;45708;51.848;107.620;2024-01-15T00:43:46;95193.13;;;-27.58;71.94
59829;BME280;45708;51.848;107.620;2024-01-15T00:48:47;95236.13;;;-27.61;71.78
59829;BME280;45708;51.848;107.620;2024-01-15T00:53:48;95204.75;;;-27.45;71.86
59829;BME280;45708;51.848;107.620;2024-01-15T00:58:49;95203.22;;;-27.09;72.11
59829;BME280;45708;51.848;107.620;2024-01-15T01:03:50;95199.09;;;-26.85;72.40
59829;BME280;45708;51.848;107.620;2024-01-15T01:08:50;95230.66;;;-26.53;72.45
59829;BME280;45708;51.848;107.620;2024-01-15T01:13:51;95175.13;;;-26.53;72.55
59829;BME280;45708;51.848;107.620;2024-01-15T01:18:52;95210.75;;;-26.18;72.48
59829;BME280;45708;51.848;107.620;2024-01-15T01:23:53;95229.81;;;-26.29;72.24
59829;BME280;45708;51.848;107.620;2024-01-15T01:28:53;95229.03;;;-26.39;71.96
59829;BME280;45708;51.848;107.620;2024-01-15T01:33:54;95223.16;;;-26.73;72.19
59829;BME280;45708;51.848;107.620;2024-01-15T01:38:55;95201.59;;;-26.92;71.76
59829;BME280;45708;51.848;107.620;2024-01-15T01:43:56;95193.28;;;-27.06;71.62
59829;BME280;45708;51.848;107.620;2024-01-15T01:48:58;95183.28;;;-27.37;71.72
59829;BME280;45708;51.848;107.620;2024-01-15T01:53:59;95203.25;;;-26.96;71.76
59829;BME280;45708;51.848;107.620;2024-01-15T01:59:01;95204.91;;;-26.84;71.92
59829;BME280;45708;51.848;107.620;2024-01-15T02:04:03;95193.34;;;-26.79;71.83
59829;BME280;45708;51.848;107.620;2024-01-15T02:09:05;95177.63;;;-26.55;71.89
59829;BME280;45708;51.848;107.620;2024-01-15T02:14:05;95198.31;;;-26.33;71.87
59829;BME280;45708;51.848;107.620;2024-01-15T02:24:26;95199.13;;;-26.01;72.08
59829;BME280;45708;51.848;107.620;2024-01-15T02:29:27;95148.50;;;-25.90;72.08
59829;BME280;45708;51.848;107.620;2024-01-15T02:34:31;95180.75;;;-25.66;72.00
59829;BME280;45708;51.848;107.620;2024-01-15T02:39:32;95187.41;;;-25.62;71.93
59829;BME280;45708;51.848;107.620;2024-01-15T02:44:33;95183.25;;;-25.66;71.99
59829;BME280;45708;51.848;107.620;2024-01-15T02:49:34;95184.06;;;-25.55;71.96
59829;BME280;45708;51.848;107.620;2024-01-15T02:54:35;95147.50;;;-25.48;72.17
59829;BME280;45708;51.848;107.620;2024-01-15T02:59:35;95148.31;;;-25.39;72.03
59829;BME280;45708;51.848;107.620;2024-01-15T03:04:36;95142.47;;;-25.33;72.49
59829;BME280;45708;51.848;107.620;2024-01-15T03:09:37;95153.03;;;-24.96;71.92
59829;BME280;45708;51.848;107.620;2024-01-15T03:14:38;95093.06;;;-24.75;72.33
59829;BME280;45708;51.848;107.620;2024-01-15T03:19:39;95136.03;;;-24.39;71.89
59829;BME280;45708;51.848;107.620;2024-01-15T03:24:39;95102.09;;;-24.58;72.10
59829;BME280;45708;51.848;107.620;2024-01-15T03:29:41;95088.13;;;-24.81;72.30
59829;BME280;45708;51.848;107.620;2024-01-15T03:34:41;95112.75;;;-24.44;72.22
59829;BME280;45708;51.848;107.620;2024-01-15T03:39:42;95106.06;;;-24.36;72.13
59829;BME280;45708;51.848;107.620;2024-01-15T03:44:43;95101.78;;;-24.26;71.80
59829;BME280;45708;51.848;107.620;2024-01-15T03:49:44;95076.09;;;-24.33;71.67
59829;BME280;45708;51.848;107.620;2024-01-15T03:54:45;95080.91;;;-24.18;72.10
59829;BME280;45708;51.848;107.620;2024-01-15T03:59:45;95103.09;;;-23.90;72.07
59829;BME280;45708;51.848;107.620;2024-01-15T04:04:46;95062.31;;;-23.92;72.13
59829;BME280;45708;51.848;107.620;2024-01-15T04:09:47;95037.97;;;-23.73;72.07
59829;BME280;45708;51.848;107.620;2024-01-15T04:14:48;95056.63;;;-23.36;71.89
59829;BME280;45708;51.848;107.620;2024-01-15T04:19:49;95080.50;;;-23.14;72.55
59829;BME280;45708;51.848;107.620;2024-01-15T04:24:50;95089.38;;;-22.93;72.68
59829;BME280;45708;51.848;107.620;2024-01-15T04:29:50;95101.47;;;-22.67;72.23
59829;BME280;45708;51.848;107.620;2024-01-15T04:34:51;95083.56;;;-22.41;71.84
59829;BME280;45708;51.848;107.620;2024-01-15T04:39:52;95086.47;;;-22.14;72.55
59829;BME280;45708;51.848;107.620;2024-01-15T04:44:53;95072.16;;;-22.09;72.39
59829;BME280;45708;51.848;107.620;2024-01-15T04:49:53;95066.03;;;-21.95;72.14
59829;BME280;45708;51.848;107.620;2024-01-15T04:54:54;95085.06;;;-21.84;72.37
59829;BME280;45708;51.848;107.620;2024-01-15T04:59:55;95084.59;;;-21.59;72.38
59829;BME280;45708;51.848;107.620;2024-01-15T05:04:56;95046.84;;;-21.52;72.41
59829;BME280;45708;51.848;107.620;2024-01-15T05:09:57;95049.94;;;-21.38;72.43
59829;BME280;45708;51.848;107.620;2024-01-15T05:14:58;95048.03;;;-21.29;72.70
59829;BME280;45708;51.848;107.620;2024-01-15T05:19:58;95014.59;;;-21.29;72.68
59829;BME280;45708;51.848;107.620;2024-01-15T05:24:59;95047.34;;;-20.97;72.43
59829;BME280;45708;51.848;107.620;2024-01-15T05:30:00;95033.75;;;-20.88;72.52
59829;BME280;45708;51.848;107.620;2024-01-15T05:35:01;94985.88;;;-20.79;72.41
59829;BME280;45708;51.848;107.620;2024-01-15T05:40:02;94976.34;;;-20.66;72.47
59829;BME280;45708;51.848;107.620;2024-01-15T05:45:03;94957.00;;;-20.63;72.33
59829;BME280;45708;51.848;107.620;2024-01-15T05:50:04;94956.28;;;-20.35;72.46
59829;BME280;45708;51.848;107.620;2024-01-15T05:55:05;94953.50;;;-19.93;72.61
59829;BME280;45708;51.848;107.620;2024-01-15T06:00:06;94940.38;;;-19.74;72.09
59829;BME280;45708;51.848;107.620;2024-01-15T06:05:07;94931.63;;;-19.60;72.61
59829;BME280;45708;51.848;107.620;2024-01-15T06:10:08;94925.41;;;-19.50;71.38
59829;BME280;45708;51.848;107.620;2024-01-15T06:15:09;94919.19;;;-19.11;71.40
59829;BME280;45708;51.848;107.620;2024-01-15T06:20:11;94851.72;;;-19.26;71.26
59829;BME280;45708;51.848;107.620;2024-01-15T06:25:12;94845.97;;;-19.29;71.20
59829;BME280;45708;51.848;107.620;2024-01-15T06:30:13;94909.13;;;-18.84;70.60
59829;BME280;45708;51.848;107.620;2024-01-15T06:35:14;94911.25;;;-18.72;71.93
59829;BME280;45708;51.848;107.620;2024-01-15T06:40:15;94906.69;;;-18.61;71.18
59829;BME280;45708;51.848;107.620;2024-01-15T06:45:16;94893.22;;;-18.60;71.56
59829;BME280;45708;51.848;107.620;2024-01-15T06:50:17;94872.75;;;-19.00;71.42
59829;BME280;45708;51.848;107.620;2024-01-15T06:55:17;94909.41;;;-18.67;71.78
59829;BME280;45708;51.848;107.620;2024-01-15T07:00:18;94858.25;;;-18.94;71.06
59829;BME280;45708;51.848;107.620;2024-01-15T07:05:21;94911.78;;;-18.62;71.26
59829;BME280;45708;51.848;107.620;2024-01-15T07:10:21;94915.97;;;-18.63;72.01
59829;BME280;45708;51.848;107.620;2024-01-15T07:15:22;94867.88;;;-18.80;71.83
59829;BME280;45708;51.848;107.620;2024-01-15T07:20:24;94887.97;;;-18.54;70.62
59829;BME280;45708;51.848;107.620;2024-01-15T07:25:25;94904.09;;;-18.59;71.32
59829;BME280;45708;51.848;107.620;2024-01-15T07:30:26;94917.53;;;-18.59;71.31
59829;BME280;45708;51.848;107.620;2024-01-15T07:35:27;94893.81;;;-18.53;71.27
59829;BME280;45708;51.848;107.620;2024-01-15T07:40:28;94922.63;;;-18.35;70.96
59829;BME280;45708;51.848;107.620;2024-01-15T07:45:28;94932.19;;;-18.20;70.65
59829;BME280;45708;51.848;107.620;2024-01-15T07:50:29;94966.31;;;-17.87;70.80
59829;BME280;45708;51.848;107.620;2024-01-15T07:55:30;94975.16;;;-17.98;70.68
59829;BME280;45708;51.848;107.620;2024-01-15T08:00:31;94965.19;;;-18.03;70.12
59829;BME280;45708;51.848;107.620;2024-01-15T08:05:32;95031.41;;;-17.96;70.48
59829;BME280;45708;51.848;107.620;2024-01-15T08:10:33;95045.00;;;-18.02;70.73
59829;BME280;45708;51.848;107.620;2024-01-15T08:15:34;95011.00;;;-18.15;70.24
59829;BME280;45708;51.848;107.620;2024-01-15T08:20:34;94996.31;;;-18.29;70.39
59829;BME280;45708;51.848;107.620;2024-01-15T08:25:35;95013.56;;;-18.43;70.50
59829;BME280;45708;51.848;107.620;2024-01-15T08:30:36;94964.56;;;-18.86;70.30
59829;BME280;45708;51.848;107.620;2024-01-15T08:35:37;94995.88;;;-18.66;70.23
59829;BME280;45708;51.848;107.620;2024-01-15T08:40:38;95008.81;;;-18.77;70.43
59829;BME280;45708;51.848;107.620;2024-01-15T08:45:39;95015.38;;;-18.99;70.71
59829;BME280;45708;51.848;107.620;2024-01-15T08:50:39;94983.56;;;-19.31;70.41
59829;BME280;45708;51.848;107.620;2024-01-15T08:55:40;95007.69;;;-19.24;70.33
59829;BME280;45708;51.848;107.620;2024-01-15T09:00:41;95003.06;;;-19.38;70.73
59829;BME280;45708;51.848;107.620;2024-01-15T09:05:42;95029.97;;;-19.40;70.13
59829;BME280;45708;51.848;107.620;2024-01-15T09:10:43;95017.06;;;-19.29;70.76
59829;BME280;45708;51.848;107.620;2024-01-15T09:15:44;95012.72;;;-19.24;70.00
59829;BME280;45708;51.848;107.620;2024-01-15T09:20:44;95069.16;;;-19.03;70.51
59829;BME280;45708;51.848;107.620;2024-01-15T09:25:45;95085.75;;;-18.96;69.66
59829;BME280;45708;51.848;107.620;2024-01-15T09:30:46;95065.22;;;-19.12;70.41
59829;BME280;45708;51.848;107.620;2024-01-15T09:41:09;95098.19;;;-19.20;69.95
59829;BME280;45708;51.848;107.620;2024-01-15T09:46:10;95099.75;;;-19.16;70.10
59829;BME280;45708;51.848;107.620;2024-01-15T09:51:12;95114.97;;;-19.22;70.45
59829;BME280;45708;51.848;107.620;2024-01-15T09:56:14;95059.03;;;-19.59;70.69
59829;BME280;45708;51.848;107.620;2024-01-15T10:01:17;95099.28;;;-19.30;70.45
59829;BME280;45708;51.848;107.620;2024-01-15T10:06:17;95129.94;;;-19.16;70.97
59829;BME280;45708;51.848;107.620;2024-01-15T10:11:18;95135.19;;;-19.25;70.33
59829;BME280;45708;51.848;107.620;2024-01-15T10:16:19;95125.47;;;-19.37;70.31
59829;BME280;45708;51.848;107.620;2024-01-15T10:21:20;95149.53;;;-19.27;70.46
59829;BME280;45708;51.848;107.620;2024-01-15T10:26:25;95152.13;;;-19.30;69.81
59829;BME280;45708;51.848;107.620;2024-01-15T10:31:26;95164.22;;;-19.44;70.18
59829;BME280;45708;51.848;107.620;2024-01-15T10:36:27;95083.38;;;-19.94;70.26
59829;BME280;45708;51.848;107.620;2024-01-15T10:41:30;95140.88;;;-19.49;70.42
59829;BME280;45708;51.848;107.620;2024-01-15T10:46:31;95135.19;;;-19.54;70.43
59829;BME280;45708;51.848;107.620;2024-01-15T10:51:33;95134.13;;;-19.47;69.70
59829;BME280;45708;51.848;107.620;2024-01-15T10:56:35;95124.34;;;-19.56;70.24
59829;BME280;45708;51.848;107.620;2024-01-15T11:01:37;95137.63;;;-19.53;70.40
59829;BME280;45708;51.848;107.620;2024-01-15T11:06:42;95127.00;;;-19.62;70.12
59829;BME280;45708;51.848;107.620;2024-01-15T11:11:52;95151.03;;;-19.52;70.31
59829;BME280;45708;51.848;107.620;2024-01-15T11:17:03;95144.25;;;-19.50;69.87
59829;BME280;45708;51.848;107.620;2024-01-15T11:22:04;95112.78;;;-19.63;70.56
59829;BME280;45708;51.848;107.620;2024-01-15T11:27:09;95146.19;;;-19.58;69.83
59829;BME280;45708;51.848;107.620;2024-01-15T11:32:10;95159.69;;;-19.62;70.14
59829;BME280;45708;51.848;107.620;2024-01-15T11:37:11;95154.13;;;-19.74;70.09
59829;BME280;45708;51.848;107.620;2024-01-15T11:42:12;95161.81;;;-19.80;69.85
59829;BME280;45708;51.848;107.620;2024-01-15T11:47:13;95149.44;;;-19.89;70.33
59829;BME280;45708;51.848;107.620;2024-01-15T11:52:19;95157.84;;;-19.90;69.80
59829;BME280;45708;51.848;107.620;2024-01-15T11:57:27;95153.25;;;-20.08;69.71
59829;BME280;45708;51.848;107.620;2024-01-15T12:02:31;95172.38;;;-20.01;69.82
59829;BME280;45708;51.848;107.620;2024-01-15T12:07:32;95164.94;;;-20.06;70.24
59829;BME280;45708;51.848;107.620;2024-01-15T12:12:47;95188.19;;;-19.96;70.48
59829;BME280;45708;51.848;107.620;2024-01-15T12:17:51;95200.19;;;-20.09;69.77
59829;BME280;45708;51.848;107.620;2024-01-15T12:22:52;95188.72;;;-20.19;70.07
59829;BME280;45708;51.848;107.620;2024-01-15T12:27:53;95196.41;;;-20.26;69.95
59829;BME280;45708;51.848;107.620;2024-01-15T12:32:55;95174.25;;;-20.46;70.14
59829;BME280;45708;51.848;107.620;2024-01-15T12:37:56;95138.63;;;-20.64;69.44
59829;BME280;45708;51.848;107.620;2024-01-15T12:42:57;95180.09;;;-20.46;69.47
59829;BME280;45708;51.848;107.620;2024-01-15T12:47:58;95196.59;;;-20.36;69.81
59829;BME280;45708;51.848;107.620;2024-01-15T12:52:59;95194.47;;;-20.52;69.65
59829;BME280;45708;51.848;107.620;2024-01-15T12:58:00;95192.16;;;-20.60;69.63
59829;BME280;45708;51.848;107.620;2024-01-15T13:03:02;95194.91;;;-20.72;69.74
59829;BME280;45708;51.848;107.620;2024-01-15T13:08:03;95185.13;;;-20.86;69.49
59829;BME280;45708;51.848;107.620;2024-01-15T13:13:05;95191.94;;;-20.91;69.82
59829;BME280;45708;51.848;107.620;2024-01-15T13:18:06;95198.78;;;-20.99;69.45
59829;BME280;45708;51.848;107.620;2024-01-15T13:23:07;95198.13;;;-21.09;69.74
59829;BME280;45708;51.848;107.620;2024-01-15T13:28:08;95203.19;;;-21.10;69.69
59829;BME280;45708;51.848;107.620;2024-01-15T13:33:09;95181.53;;;-21.16;69.84
59829;BME280;45708;51.848;107.620;2024-01-15T13:38:09;95187.19;;;-21.06;69.91
59829;BME280;45708;51.848;107.620;2024-01-15T13:43:11;95159.63;;;-21.08;69.58
59829;BME280;45708;51.848;107.620;2024-01-15T13:48:12;95179.19;;;-20.80;70.36
59829;BME280;45708;51.848;107.620;2024-01-15T13:53:13;95195.63;;;-20.67;69.98
59829;BME280;45708;51.848;107.620;2024-01-15T13:58:16;95173.13;;;-20.72;69.84
59829;BME280;45708;51.848;107.620;2024-01-15T14:03:17;95183.28;;;-20.76;69.95
59829;BME280;45708;51.848;107.620;2024-01-15T14:08:18;95162.19;;;-20.69;69.60
59829;BME280;45708;51.848;107.620;2024-01-15T14:13:19;95161.28;;;-20.67;70.40
59829;BME280;45708;51.848;107.620;2024-01-15T14:18:20;95171.00;;;-20.50;69.88
59829;BME280;45708;51.848;107.620;2024-01-15T14:23:21;95164.47;;;-20.21;70.10
59829;BME280;45708;51.848;107.620;2024-01-15T14:28:21;95140.09;;;-19.84;69.75
59829;BME280;45708;51.848;107.620;2024-01-15T14:33:22;95154.34;;;-19.50;69.47
59829;BME280;45708;51.848;107.620;2024-01-15T14:38:23;95142.16;;;-19.33;70.61
59829;BME280;45708;51.848;107.620;2024-01-15T14:43:24;95108.97;;;-19.47;70.03
59829;BME280;45708;51.848;107.620;2024-01-15T14:48:25;95139.41;;;-19.25;69.60
59829;BME280;45708;51.848;107.620;2024-01-15T14:53:26;95140.22;;;-19.25;70.54
59829;BME280;45708;51.848;107.620;2024-01-15T14:58:27;95146.88;;;-19.22;69.93
59829;BME280;45708;51.848;107.620;2024-01-15T15:03:27;95125.91;;;-19.21;70.02
59829;BME280;45708;51.848;107.620;2024-01-15T15:08:28;95141.16;;;-18.96;69.58
59829;BME280;45708;51.848;107.620;2024-01-15T15:13:29;95139.31;;;-18.91;69.55
59829;BME280;45708;51.848;107.620;2024-01-15T15:18:30;95128.03;;;-19.08;70.03
59829;BME280;45708;51.848;107.620;2024-01-15T15:23:31;95141.41;;;-19.05;69.70
59829;BME280;45708;51.848;107.620;2024-01-15T15:28:32;95132.41;;;-19.14;69.93
59829;BME280;45708;51.848;107.620;2024-01-15T15:33:33;95143.72;;;-19.29;70.04
59829;BME280;45708;51.848;107.620;2024-01-15T15:38:34;95157.38;;;-19.37;70.33
59829;BME280;45708;51.848;107.620;2024-01-15T15:43:35;95151.16;;;-19.55;69.22
59829;BME280;45708;51.848;107.620;2024-01-15T15:48:36;95100.66;;;-20.14;69.58
59829;BME280;45708;51.848;107.620;2024-01-15T15:53:36;95136.53;;;-20.09;69.63
59829;BME280;45708;51.848;107.620;2024-01-15T15:58:37;95154.22;;;-20.12;69.61
59829;BME280;45708;51.848;107.620;2024-01-15T16:03:38;95139.69;;;-20.37;69.80
59829;BME280;45708;51.848;107.620;2024-01-15T16:08:39;95134.81;;;-20.43;69.51
59829;BME280;45708;51.848;107.620;2024-01-15T16:13:40;95149.75;;;-20.37;69.61
59829;BME280;45708;51.848;107.620;2024-01-15T16:18:41;95184.78;;;-20.30;69.35
59829;BME280;45708;51.848;107.620;2024-01-15T16:23:42;95157.69;;;-20.53;69.52
59829;BME280;45708;51.848;107.620;2024-01-15T16:28:43;95175.22;;;-20.52;69.65
59829;BME280;45708;51.848;107.620;2024-01-15T16:33:43;95165.31;;;-20.58;69.72
59829;BME280;45708;51.848;107.620;2024-01-15T16:38:44;95145.56;;;-20.73;69.68
59829;BME280;45708;51.848;107.620;2024-01-15T16:43:46;95168.41;;;-20.87;69.46
59829;BME280;45708;51.848;107.620;2024-01-15T16:48:47;95166.06;;;-20.95;69.76
59829;BME280;45708;51.848;107.620;2024-01-15T16:53:48;95154.69;;;-21.11;69.60
59829;BME280;45708;51.848;107.620;2024-01-15T16:58:49;95187.97;;;-21.03;69.73
59829;BME280;45708;51.848;107.620;2024-01-15T17:03:49;95180.59;;;-21.10;69.47
59829;BME280;45708;51.848;107.620;2024-01-15T17:08:50;95158.25;;;-21.21;69.73
59829;BME280;45708;51.848;107.620;2024-01-15T17:13:51;95158.94;;;-21.14;70.00
59829;BME280;45708;51.848;107.620;2024-01-15T17:18:52;95152.22;;;-21.14;69.56
59829;BME280;45708;51.848;107.620;2024-01-15T17:23:52;95181.00;;;-20.88;69.89
59829;BME280;45708;51.848;107.620;2024-01-15T17:28:53;95175.81;;;-20.79;69.55
59829;BME280;45708;51.848;107.620;2024-01-15T17:33:54;95163.03;;;-20.69;69.77
59829;BME280;45708;51.848;107.620;2024-01-15T17:38:55;95165.03;;;-20.86;69.83
59829;BME280;45708;51.848;107.620;2024-01-15T17:43:56;95157.69;;;-20.93;69.65
59829;BME280;45708;51.848;107.620;2024-01-15T17:48:57;95172.09;;;-21.03;69.56
59829;BME280;45708;51.848;107.620;2024-01-15T17:53:57;95163.88;;;-21.11;69.78
59829;BME280;45708;51.848;107.620;2024-01-15T17:58:58;95196.47;;;-21.10;69.67
59829;BME280;45708;51.848;107.620;2024-01-15T18:03:59;95192.47;;;-21.18;69.65
59829;BME280;45708;51.848;107.620;2024-01-15T18:09:00;95184.09;;;-21.17;69.87
59829;BME280;45708;51.848;107.620;2024-01-15T18:14:01;95166.47;;;-21.14;69.97
59829;BME280;45708;51.848;107.620;2024-01-15T18:19:02;95183.06;;;-21.09;70.01
59829;BME280;45708;51.848;107.620;2024-01-15T18:24:03;95186.16;;;-20.95;70.00
59829;BME280;45708;51.848;107.620;2024-01-15T18:29:03;95208.28;;;-20.72;70.13
59829;BME280;45708;51.848;107.620;2024-01-15T18:34:04;95196.59;;;-20.73;69.84
59829;BME280;45708;51.848;107.620;2024-01-15T18:39:05;95196.56;;;-20.71;69.90
59829;BME280;45708;51.848;107.620;2024-01-15T18:44:06;95195.63;;;-20.67;69.95
59829;BME280;45708;51.848;107.620;2024-01-15T18:49:07;95215.34;;;-20.49;69.78
59829;BME280;45708;51.848;107.620;2024-01-15T18:54:08;95206.94;;;-20.48;69.95
59829;BME280;45708;51.848;107.620;2024-01-15T18:59:09;95213.25;;;-20.32;70.09
59829;BME280;45708;51.848;107.620;2024-01-15T19:09:30;95212.44;;;-20.32;69.70
59829;BME280;45708;51.848;107.620;2024-01-15T19:14:30;95188.63;;;-20.53;70.27
59829;BME280;45708;51.848;107.620;2024-01-15T19:19:31;95222.53;;;-20.34;69.84
59829;BME280;45708;51.848;107.620;2024-01-15T19:24:32;95202.03;;;-20.52;70.13
59829;BME280;45708;51.848;107.620;2024-01-15T19:29:33;95197.66;;;-20.84;69.83
59829;BME280;45708;51.848;107.620;2024-01-15T19:34:33;95229.38;;;-20.80;69.75
59829;BME280;45708;51.848;107.620;2024-01-15T19:39:34;95229.47;;;-20.86;69.89
59829;BME280;45708;51.848;107.620;2024-01-15T19:44:35;95229.94;;;-21.11;70.10
59829;BME280;45708;51.848;107.620;2024-01-15T19:49:36;95253.63;;;-21.24;69.86
59829;BME280;45708;51.848;107.620;2024-01-15T19:59:58;95271.28;;;-21.81;69.79
59829;BME280;45708;51.848;107.620;2024-01-15T20:04:59;95265.53;;;-21.88;69.60
59829;BME280;45708;51.848;107.620;2024-01-15T20:10:03;95277.91;;;-21.77;69.99
59829;BME280;45708;51.848;107.620;2024-01-15T20:15:04;95287.09;;;-21.77;69.84
59829;BME280;45708;51.848;107.620;2024-01-15T20:20:10;95272.84;;;-21.74;69.82
59829;BME280;45708;51.848;107.620;2024-01-15T20:25:11;95279.56;;;-21.76;69.96
59829;BME280;45708;51.848;107.620;2024-01-15T20:30:12;95287.94;;;-21.77;69.97
59829;BME280;45708;51.848;107.620;2024-01-15T20:35:13;95292.91;;;-21.74;69.87
59829;BME280;45708;51.848;107.620;2024-01-15T20:40:14;95287.16;;;-21.82;69.87
59829;BME280;45708;51.848;107.620;2024-01-15T20:45:15;95301.16;;;-21.69;69.73
59829;BME280;45708;51.848;107.620;2024-01-15T20:50:15;95316.94;;;-21.64;69.88
59829;BME280;45708;51.848;107.620;2024-01-15T20:55:16;95317.03;;;-21.68;69.73
59829;BME280;45708;51.848;107.620;2024-01-15T21:00:17;95328.69;;;-21.66;69.71
59829;BME280;45708;51.848;107.620;2024-01-15T21:05:18;95321.22;;;-21.69;69.71
59829;BME280;45708;51.848;107.620;2024-01-15T21:10:19;95322.91;;;-21.71;69.89
59829;BME280;45708;51.848;107.620;2024-01-15T21:15:20;95326.97;;;-21.62;70.04
59829;BME280;45708;51.848;107.620;2024-01-15T21:20:20;95342.44;;;-21.34;69.88
59829;BME280;45708;51.848;107.620;2024-01-15T21:25:21;95362.00;;;-21.07;70.02
59829;BME280;45708;51.848;107.620;2024-01-15T21:30:22;95364.44;;;-21.01;70.07
59829;BME280;45708;51.848;107.620;2024-01-15T21:35:23;95369.75;;;-21.19;69.79
59829;BME280;45708;51.848;107.620;2024-01-15T21:40:24;95379.19;;;-21.33;69.58
59829;BME280;45708;51.848;107.620;2024-01-15T21:45:25;95358.66;;;-21.57;69.81
59829;BME280;45708;51.848;107.620;2024-01-15T21:50:25;95396.00;;;-21.38;69.93
59829;BME280;45708;51.848;107.620;2024-01-15T21:55:26;95392.31;;;-21.17;69.92
59829;BME280;45708;51.848;107.620;2024-01-15T22:00:27;95363.78;;;-21.12;69.88
59829;BME280;45708;51.848;107.620;2024-01-15T22:05:28;95338.38;;;-20.93;69.86
59829;BME280;45708;51.848;107.620;2024-01-15T22:10:28;95373.69;;;-20.55;70.29
59829;BME280;45708;51.848;107.620;2024-01-15T22:15:29;95399.09;;;-20.28;69.62
59829;BME280;45708;51.848;107.620;2024-01-15T22:20:30;95400.66;;;-20.21;69.78
59829;BME280;45708;51.848;107.620;2024-01-15T22:25:31;95402.25;;;-20.17;69.77
59829;BME280;45708;51.848;107.620;2024-01-15T22:30:32;95412.38;;;-20.20;69.76
59829;BME280;45708;51.848;107.620;2024-01-15T22:35:33;95404.63;;;-20.53;69.76
59829;BME280;45708;51.848;107.620;2024-01-15T22:40:34;95430.38;;;-20.92;69.81
59829;BME280;45708;51.848;107.620;2024-01-15T22:45:35;95427.69;;;-21.34;69.69
59829;BME280;45708;51.848;107.620;2024-01-15T22:50:36;95444.34;;;-21.30;69.93
59829;BME280;45708;51.848;107.620;2024-01-15T22:55:37;95454.16;;;-21.15;70.08
59829;BME280;45708;51.848;107.620;2024-01-15T23:00:39;95457.31;;;-21.04;69.95
59829;BME280;45708;51.848;107.620;2024-01-15T23:05:39;95468.00;;;-20.91;69.83
59829;BME280;45708;51.848;107.620;2024-01-15T23:10:40;95441.28;;;-20.93;69.81
59829;BME280;45708;51.848;107.620;2024-01-15T23:15:41;95469.97;;;-20.56;69.93
59829;BME280;45708;51.848;107.620;2024-01-15T23:20:42;95476.09;;;-20.24;69.71
59829;BME280;45708;51.848;107.620;2024-01-15T23:25:43;95472.50;;;-20.11;69.72
59829;BME280;45708;51.848;107.620;2024-01-15T23:30:43;95510.56;;;-19.85;69.66
59829;BME280;45708;51.848;107.620;2024-01-15T23:35:44;95517.41;;;-19.93;69.32
59829;BME280;45708;51.848;107.620;2024-01-15T23:40:46;95508.97;;;-19.89;69.84
59829;BME280;45708;51.848;107.620;2024-01-15T23:45:47;95500.50;;;-19.85;69.75
59829;BME280;45708;51.848;107.620;2024-01-15T23:50:48;95505.50;;;-19.82;69.43
59829;BME280;45708;51.848;107.620;2024-01-15T23:55:49;95506.38;;;-19.86;69.57
